sensor_id;sensor_type;location;lat;lon;timestamp;temperature;humidity
10722;DHT22;5412;59.450;18.124;2023-07-31T00:00:25;17.70;99.90
10722;DHT22;5412;59.450;18.124;2023-07-31T00:02:52;17.60;99.90
10722;DHT22;5412;59.450;18.124;2023-07-31T00:05:18;17.60;99.90
10722;DHT22;5412;59.450;18.124;2023-07-31T00:07:44;17.60;99.90
10722;DHT22;5412;59.450;18.124;2023-07-31T00:10:09;17.60;99.90
10722;DHT22;5412;59.450;18.124;2023-07-31T00:12:35;17.70;99.90
10722;DHT22;5412;59.450;18.124;2023-07-31T00:15:01;17.60;99.90
10722;DHT22;5412;59.450;18.124;2023-07-31T00:17:28;17.60;99.90
10722;DHT22;5412;59.450;18.124;2023-07-31T00:19:53;17.60;99.90
10722;DHT22;5412;59.450;18.124;2023-07-31T00:22:19;17.60;99.90
10722;DHT22;5412;59.450;18.124;2023-07-31T00:24:45;17.60;99.90
10722;DHT22;5412;59.450;18.124;2023-07-31T00:27:11;17.60;99.90
10722;DHT22;5412;59.450;18.124;2023-07-31T00:29:36;17.70;99.90
10722;DHT22;5412;59.450;18.124;2023-07-31T00:32:02;17.70;99.90
10722;DHT22;5412;59.450;18.124;2023-07-31T00:34:28;17.70;99.90
10722;DHT22;5412;59.450;18.124;2023-07-31T00:36:54;17.70;99.90
10722;DHT22;5412;59.450;18.124;2023-07-31T00:39:19;17.70;99.90
10722;DHT22;5412;59.450;18.124;2023-07-31T00:41:45;17.60;99.90
10722;DHT22;5412;59.450;18.124;2023-07-31T00:44:11;17.60;99.90
10722;DHT22;5412;59.450;18.124;2023-07-31T00:46:36;17.60;99.90
10722;DHT22;5412;59.450;18.124;2023-07-31T00:49:03;17.60;99.90
10722;DHT22;5412;59.450;18.124;2023-07-31T00:51:29;17.60;99.90
10722;DHT22;5412;59.450;18.124;2023-07-31T00:53:55;17.50;99.90
10722;DHT22;5412;59.450;18.124;2023-07-31T00:56:22;17.50;99.90
10722;DHT22;5412;59.450;18.124;2023-07-31T00:58:48;17.60;99.90
10722;DHT22;5412;59.450;18.124;2023-07-31T01:01:13;17.60;99.90
10722;DHT22;5412;59.450;18.124;2023-07-31T01:03:39;17.50;99.90
10722;DHT22;5412;59.450;18.124;2023-07-31T01:06:15;17.50;99.90
10722;DHT22;5412;59.450;18.124;2023-07-31T01:09:02;17.50;99.90
10722;DHT22;5412;59.450;18.124;2023-07-31T01:11:30;17.50;99.90
10722;DHT22;5412;59.450;18.124;2023-07-31T01:13:57;17.50;99.90
10722;DHT22;5412;59.450;18.124;2023-07-31T01:16:24;17.50;99.90
10722;DHT22;5412;59.450;18.124;2023-07-31T01:18:50;17.40;99.90
10722;DHT22;5412;59.450;18.124;2023-07-31T01:24:20;17.40;99.90
10722;DHT22;5412;59.450;18.124;2023-07-31T01:26:53;17.50;99.90
10722;DHT22;5412;59.450;18.124;2023-07-31T01:29:28;17.50;99.90
10722;DHT22;5412;59.450;18.124;2023-07-31T01:32:01;17.50;99.90
10722;DHT22;5412;59.450;18.124;2023-07-31T01:34:29;17.50;99.90
10722;DHT22;5412;59.450;18.124;2023-07-31T01:36:56;17.50;99.90
10722;DHT22;5412;59.450;18.124;2023-07-31T01:39:23;17.60;99.90
10722;DHT22;5412;59.450;18.124;2023-07-31T01:41:49;17.50;99.90
10722;DHT22;5412;59.450;18.124;2023-07-31T01:44:15;17.60;99.90
10722;DHT22;5412;59.450;18.124;2023-07-31T01:46:40;17.50;99.90
10722;DHT22;5412;59.450;18.124;2023-07-31T01:49:06;17.50;99.90
10722;DHT22;5412;59.450;18.124;2023-07-31T01:51:32;17.50;99.90
10722;DHT22;5412;59.450;18.124;2023-07-31T01:54:01;17.40;99.90
10722;DHT22;5412;59.450;18.124;2023-07-31T01:56:27;17.40;99.90
10722;DHT22;5412;59.450;18.124;2023-07-31T01:58:53;17.40;99.90
10722;DHT22;5412;59.450;18.124;2023-07-31T02:01:19;17.40;99.90
10722;DHT22;5412;59.450;18.124;2023-07-31T02:03:44;17.40;99.90
10722;DHT22;5412;59.450;18.124;2023-07-31T02:06:10;17.40;99.90
10722;DHT22;5412;59.450;18.124;2023-07-31T02:08:36;17.40;99.90
10722;DHT22;5412;59.450;18.124;2023-07-31T02:11:02;17.40;99.90
10722;DHT22;5412;59.450;18.124;2023-07-31T02:13:27;17.40;99.90
10722;DHT22;5412;59.450;18.124;2023-07-31T02:15:53;17.30;99.90
10722;DHT22;5412;59.450;18.124;2023-07-31T02:18:19;17.30;99.90
10722;DHT22;5412;59.450;18.124;2023-07-31T02:20:49;17.40;99.90
10722;DHT22;5412;59.450;18.124;2023-07-31T02:23:16;17.40;99.90
10722;DHT22;5412;59.450;18.124;2023-07-31T02:25:42;17.40;99.90
10722;DHT22;5412;59.450;18.124;2023-07-31T02:28:08;17.40;99.90
10722;DHT22;5412;59.450;18.124;2023-07-31T02:30:34;17.40;99.90
10722;DHT22;5412;59.450;18.124;2023-07-31T02:32:59;17.40;99.90
10722;DHT22;5412;59.450;18.124;2023-07-31T02:35:25;17.50;99.90
10722;DHT22;5412;59.450;18.124;2023-07-31T02:37:51;17.40;99.90
10722;DHT22;5412;59.450;18.124;2023-07-31T02:40:17;17.40;99.90
10722;DHT22;5412;59.450;18.124;2023-07-31T02:42:42;17.40;99.90
10722;DHT22;5412;59.450;18.124;2023-07-31T02:45:08;17.30;99.90
10722;DHT22;5412;59.450;18.124;2023-07-31T02:47:34;17.30;99.90
10722;DHT22;5412;59.450;18.124;2023-07-31T02:50:00;17.20;99.90
10722;DHT22;5412;59.450;18.124;2023-07-31T02:52:26;17.20;99.90
10722;DHT22;5412;59.450;18.124;2023-07-31T02:54:52;17.20;99.90
10722;DHT22;5412;59.450;18.124;2023-07-31T02:57:18;17.20;99.90
10722;DHT22;5412;59.450;18.124;2023-07-31T02:59:43;17.10;99.90
10722;DHT22;5412;59.450;18.124;2023-07-31T03:02:09;17.20;99.90
10722;DHT22;5412;59.450;18.124;2023-07-31T03:04:35;17.30;99.90
10722;DHT22;5412;59.450;18.124;2023-07-31T03:07:00;17.30;99.90
10722;DHT22;5412;59.450;18.124;2023-07-31T03:09:26;17.30;99.90
10722;DHT22;5412;59.450;18.124;2023-07-31T03:11:52;17.30;99.90
10722;DHT22;5412;59.450;18.124;2023-07-31T03:14:17;17.30;99.90
10722;DHT22;5412;59.450;18.124;2023-07-31T03:16:43;17.40;99.90
10722;DHT22;5412;59.450;18.124;2023-07-31T03:19:09;17.40;99.90
10722;DHT22;5412;59.450;18.124;2023-07-31T03:21:34;17.50;99.90
10722;DHT22;5412;59.450;18.124;2023-07-31T03:24:00;17.50;99.90
10722;DHT22;5412;59.450;18.124;2023-07-31T03:26:26;17.50;99.90
10722;DHT22;5412;59.450;18.124;2023-07-31T03:28:51;17.50;99.90
10722;DHT22;5412;59.450;18.124;2023-07-31T03:31:17;17.50;99.90
10722;DHT22;5412;59.450;18.124;2023-07-31T03:33:43;17.50;99.90
10722;DHT22;5412;59.450;18.124;2023-07-31T03:36:08;17.50;99.90
10722;DHT22;5412;59.450;18.124;2023-07-31T03:38:34;17.50;99.90
10722;DHT22;5412;59.450;18.124;2023-07-31T03:41:00;17.60;99.90
10722;DHT22;5412;59.450;18.124;2023-07-31T03:43:26;17.60;99.90
10722;DHT22;5412;59.450;18.124;2023-07-31T03:45:51;17.60;99.90
10722;DHT22;5412;59.450;18.124;2023-07-31T03:48:17;17.70;99.90
10722;DHT22;5412;59.450;18.124;2023-07-31T03:50:43;17.70;99.90
10722;DHT22;5412;59.450;18.124;2023-07-31T03:53:09;17.70;99.90
10722;DHT22;5412;59.450;18.124;2023-07-31T03:55:34;17.70;99.90
10722;DHT22;5412;59.450;18.124;2023-07-31T03:58:00;17.70;99.90
10722;DHT22;5412;59.450;18.124;2023-07-31T04:00:27;17.70;99.90
10722;DHT22;5412;59.450;18.124;2023-07-31T04:02:52;17.70;99.90
10722;DHT22;5412;59.450;18.124;2023-07-31T04:05:18;17.70;99.90
10722;DHT22;5412;59.450;18.124;2023-07-31T04:07:44;17.60;99.90
10722;DHT22;5412;59.450;18.124;2023-07-31T04:10:10;17.60;99.90
10722;DHT22;5412;59.450;18.124;2023-07-31T04:12:36;17.60;99.90
10722;DHT22;5412;59.450;18.124;2023-07-31T04:15:01;17.60;99.90
10722;DHT22;5412;59.450;18.124;2023-07-31T04:17:27;17.70;99.90
10722;DHT22;5412;59.450;18.124;2023-07-31T04:19:53;17.70;99.90
10722;DHT22;5412;59.450;18.124;2023-07-31T04:22:18;17.70;99.90
10722;DHT22;5412;59.450;18.124;2023-07-31T04:24:44;17.70;99.90
10722;DHT22;5412;59.450;18.124;2023-07-31T04:27:10;17.70;99.90
10722;DHT22;5412;59.450;18.124;2023-07-31T04:29:35;17.70;99.90
10722;DHT22;5412;59.450;18.124;2023-07-31T04:32:01;17.70;99.90
10722;DHT22;5412;59.450;18.124;2023-07-31T04:34:27;17.70;99.90
10722;DHT22;5412;59.450;18.124;2023-07-31T04:36:52;17.70;99.90
10722;DHT22;5412;59.450;18.124;2023-07-31T04:39:18;17.60;99.90
10722;DHT22;5412;59.450;18.124;2023-07-31T04:41:44;17.70;99.90
10722;DHT22;5412;59.450;18.124;2023-07-31T04:44:09;17.60;99.90
10722;DHT22;5412;59.450;18.124;2023-07-31T04:46:36;17.60;99.90
10722;DHT22;5412;59.450;18.124;2023-07-31T04:49:03;17.60;99.90
10722;DHT22;5412;59.450;18.124;2023-07-31T04:51:28;17.70;99.90
10722;DHT22;5412;59.450;18.124;2023-07-31T04:53:54;17.70;99.90
10722;DHT22;5412;59.450;18.124;2023-07-31T04:56:20;17.80;99.90
10722;DHT22;5412;59.450;18.124;2023-07-31T04:58:45;17.80;99.90
10722;DHT22;5412;59.450;18.124;2023-07-31T05:01:11;17.90;99.90
10722;DHT22;5412;59.450;18.124;2023-07-31T05:03:37;17.90;99.90
10722;DHT22;5412;59.450;18.124;2023-07-31T05:06:03;17.90;99.90
10722;DHT22;5412;59.450;18.124;2023-07-31T05:08:28;17.90;99.90
10722;DHT22;5412;59.450;18.124;2023-07-31T05:10:54;17.90;99.90
10722;DHT22;5412;59.450;18.124;2023-07-31T05:13:20;17.90;99.90
10722;DHT22;5412;59.450;18.124;2023-07-31T05:15:46;18.00;99.90
10722;DHT22;5412;59.450;18.124;2023-07-31T05:18:14;18.00;99.90
10722;DHT22;5412;59.450;18.124;2023-07-31T05:20:40;18.00;99.90
10722;DHT22;5412;59.450;18.124;2023-07-31T05:23:06;18.00;99.90
10722;DHT22;5412;59.450;18.124;2023-07-31T05:25:32;18.00;99.90
10722;DHT22;5412;59.450;18.124;2023-07-31T05:27:58;18.00;99.90
10722;DHT22;5412;59.450;18.124;2023-07-31T05:30:24;17.90;99.90
10722;DHT22;5412;59.450;18.124;2023-07-31T05:32:49;17.90;99.90
10722;DHT22;5412;59.450;18.124;2023-07-31T05:35:15;18.00;99.90
10722;DHT22;5412;59.450;18.124;2023-07-31T05:37:41;17.90;99.90
10722;DHT22;5412;59.450;18.124;2023-07-31T05:40:07;17.90;99.90
10722;DHT22;5412;59.450;18.124;2023-07-31T05:42:33;17.90;99.90
10722;DHT22;5412;59.450;18.124;2023-07-31T05:44:58;17.90;99.90
10722;DHT22;5412;59.450;18.124;2023-07-31T05:47:24;17.90;99.90
10722;DHT22;5412;59.450;18.124;2023-07-31T05:49:50;17.90;99.90
10722;DHT22;5412;59.450;18.124;2023-07-31T05:52:18;17.80;99.90
10722;DHT22;5412;59.450;18.124;2023-07-31T05:54:44;17.90;99.90
10722;DHT22;5412;59.450;18.124;2023-07-31T05:57:11;18.00;99.90
10722;DHT22;5412;59.450;18.124;2023-07-31T05:59:37;18.00;99.90
10722;DHT22;5412;59.450;18.124;2023-07-31T06:02:03;18.10;99.90
10722;DHT22;5412;59.450;18.124;2023-07-31T06:04:29;18.00;99.90
10722;DHT22;5412;59.450;18.124;2023-07-31T06:06:55;18.10;99.90
10722;DHT22;5412;59.450;18.124;2023-07-31T06:09:21;18.10;99.90
10722;DHT22;5412;59.450;18.124;2023-07-31T06:11:47;18.20;99.90
10722;DHT22;5412;59.450;18.124;2023-07-31T06:14:12;18.10;99.90
10722;DHT22;5412;59.450;18.124;2023-07-31T06:16:38;18.10;99.90
10722;DHT22;5412;59.450;18.124;2023-07-31T06:19:04;18.20;99.90
10722;DHT22;5412;59.450;18.124;2023-07-31T06:21:30;18.20;99.90
10722;DHT22;5412;59.450;18.124;2023-07-31T06:23:56;18.20;99.90
10722;DHT22;5412;59.450;18.124;2023-07-31T06:26:22;18.20;99.90
10722;DHT22;5412;59.450;18.124;2023-07-31T06:28:48;18.30;99.90
10722;DHT22;5412;59.450;18.124;2023-07-31T06:31:13;18.30;99.90
10722;DHT22;5412;59.450;18.124;2023-07-31T06:33:39;18.30;99.90
10722;DHT22;5412;59.450;18.124;2023-07-31T06:36:06;18.40;99.90
10722;DHT22;5412;59.450;18.124;2023-07-31T06:38:32;18.40;99.90
10722;DHT22;5412;59.450;18.124;2023-07-31T06:40:57;18.40;99.90
10722;DHT22;5412;59.450;18.124;2023-07-31T06:43:23;18.40;99.90
10722;DHT22;5412;59.450;18.124;2023-07-31T06:45:49;18.20;99.90
10722;DHT22;5412;59.450;18.124;2023-07-31T06:48:17;18.30;99.90
10722;DHT22;5412;59.450;18.124;2023-07-31T06:50:42;18.30;99.90
10722;DHT22;5412;59.450;18.124;2023-07-31T06:53:08;18.30;99.90
10722;DHT22;5412;59.450;18.124;2023-07-31T06:55:34;18.10;99.90
10722;DHT22;5412;59.450;18.124;2023-07-31T06:58:00;17.90;99.90
10722;DHT22;5412;59.450;18.124;2023-07-31T07:00:25;17.90;99.90
10722;DHT22;5412;59.450;18.124;2023-07-31T07:02:51;18.00;99.90
10722;DHT22;5412;59.450;18.124;2023-07-31T07:05:17;18.10;99.90
10722;DHT22;5412;59.450;18.124;2023-07-31T07:07:43;18.10;99.90
10722;DHT22;5412;59.450;18.124;2023-07-31T07:10:09;18.20;99.90
10722;DHT22;5412;59.450;18.124;2023-07-31T07:12:36;18.20;99.90
10722;DHT22;5412;59.450;18.124;2023-07-31T07:15:02;18.10;99.90
10722;DHT22;5412;59.450;18.124;2023-07-31T07:17:29;18.20;99.90
10722;DHT22;5412;59.450;18.124;2023-07-31T07:19:57;18.10;99.90
10722;DHT22;5412;59.450;18.124;2023-07-31T07:22:23;18.20;99.90
10722;DHT22;5412;59.450;18.124;2023-07-31T07:24:49;18.10;99.90
10722;DHT22;5412;59.450;18.124;2023-07-31T07:27:15;18.00;99.90
10722;DHT22;5412;59.450;18.124;2023-07-31T07:29:41;18.00;99.90
10722;DHT22;5412;59.450;18.124;2023-07-31T07:32:06;18.10;99.90
10722;DHT22;5412;59.450;18.124;2023-07-31T07:34:32;18.00;99.90
10722;DHT22;5412;59.450;18.124;2023-07-31T07:36:58;17.90;99.90
10722;DHT22;5412;59.450;18.124;2023-07-31T07:39:24;17.70;99.90
10722;DHT22;5412;59.450;18.124;2023-07-31T07:41:50;17.70;99.90
10722;DHT22;5412;59.450;18.124;2023-07-31T07:44:16;17.60;99.90
10722;DHT22;5412;59.450;18.124;2023-07-31T07:46:42;17.50;99.90
10722;DHT22;5412;59.450;18.124;2023-07-31T07:49:07;17.40;99.90
10722;DHT22;5412;59.450;18.124;2023-07-31T07:51:33;17.30;99.90
10722;DHT22;5412;59.450;18.124;2023-07-31T07:53:59;17.20;99.90
10722;DHT22;5412;59.450;18.124;2023-07-31T07:56:26;17.10;99.90
10722;DHT22;5412;59.450;18.124;2023-07-31T07:58:52;16.90;99.90
10722;DHT22;5412;59.450;18.124;2023-07-31T08:01:18;16.90;99.90
10722;DHT22;5412;59.450;18.124;2023-07-31T08:03:44;16.90;99.90
10722;DHT22;5412;59.450;18.124;2023-07-31T08:06:10;16.80;99.90
10722;DHT22;5412;59.450;18.124;2023-07-31T08:08:36;16.70;99.90
10722;DHT22;5412;59.450;18.124;2023-07-31T08:11:02;16.40;99.90
10722;DHT22;5412;59.450;18.124;2023-07-31T08:13:28;16.30;99.90
10722;DHT22;5412;59.450;18.124;2023-07-31T08:15:54;16.30;99.90
10722;DHT22;5412;59.450;18.124;2023-07-31T08:18:19;16.30;99.90
10722;DHT22;5412;59.450;18.124;2023-07-31T08:20:45;16.30;99.90
10722;DHT22;5412;59.450;18.124;2023-07-31T08:23:11;16.30;99.90
10722;DHT22;5412;59.450;18.124;2023-07-31T08:25:37;16.40;99.90
10722;DHT22;5412;59.450;18.124;2023-07-31T08:28:04;16.40;99.90
10722;DHT22;5412;59.450;18.124;2023-07-31T08:30:30;16.30;99.90
10722;DHT22;5412;59.450;18.124;2023-07-31T08:32:56;16.30;99.90
10722;DHT22;5412;59.450;18.124;2023-07-31T08:35:23;16.30;99.90
10722;DHT22;5412;59.450;18.124;2023-07-31T08:37:49;16.30;99.90
10722;DHT22;5412;59.450;18.124;2023-07-31T08:40:15;16.10;99.90
10722;DHT22;5412;59.450;18.124;2023-07-31T08:42:48;16.20;99.90
10722;DHT22;5412;59.450;18.124;2023-07-31T08:45:16;16.30;99.90
10722;DHT22;5412;59.450;18.124;2023-07-31T08:47:48;16.20;99.90
10722;DHT22;5412;59.450;18.124;2023-07-31T08:50:16;16.30;99.90
10722;DHT22;5412;59.450;18.124;2023-07-31T08:52:41;16.20;99.90
10722;DHT22;5412;59.450;18.124;2023-07-31T08:55:08;16.20;99.90
10722;DHT22;5412;59.450;18.124;2023-07-31T08:57:35;16.30;99.90
10722;DHT22;5412;59.450;18.124;2023-07-31T09:00:02;16.20;99.90
10722;DHT22;5412;59.450;18.124;2023-07-31T09:02:37;16.20;99.90
10722;DHT22;5412;59.450;18.124;2023-07-31T09:05:06;16.20;99.90
10722;DHT22;5412;59.450;18.124;2023-07-31T09:07:34;16.30;99.90
10722;DHT22;5412;59.450;18.124;2023-07-31T09:10:00;16.40;99.90
10722;DHT22;5412;59.450;18.124;2023-07-31T09:12:26;16.40;99.90
10722;DHT22;5412;59.450;18.124;2023-07-31T09:14:52;16.50;99.90
10722;DHT22;5412;59.450;18.124;2023-07-31T09:17:32;16.60;99.90
10722;DHT22;5412;59.450;18.124;2023-07-31T09:19:58;16.70;99.90
10722;DHT22;5412;59.450;18.124;2023-07-31T09:22:34;16.70;99.90
10722;DHT22;5412;59.450;18.124;2023-07-31T09:25:22;16.70;99.90
10722;DHT22;5412;59.450;18.124;2023-07-31T09:30:20;16.90;99.90
10722;DHT22;5412;59.450;18.124;2023-07-31T09:32:47;17.00;99.90
10722;DHT22;5412;59.450;18.124;2023-07-31T09:35:29;17.20;99.90
10722;DHT22;5412;59.450;18.124;2023-07-31T09:38:09;17.40;99.90
10722;DHT22;5412;59.450;18.124;2023-07-31T09:40:36;17.50;99.90
10722;DHT22;5412;59.450;18.124;2023-07-31T09:43:07;17.80;99.90
10722;DHT22;5412;59.450;18.124;2023-07-31T09:45:38;18.00;99.90
10722;DHT22;5412;59.450;18.124;2023-07-31T09:48:08;18.20;99.90
10722;DHT22;5412;59.450;18.124;2023-07-31T09:50:41;18.30;99.90
10722;DHT22;5412;59.450;18.124;2023-07-31T09:53:07;18.50;99.90
10722;DHT22;5412;59.450;18.124;2023-07-31T09:55:34;18.70;99.90
10722;DHT22;5412;59.450;18.124;2023-07-31T09:58:05;18.80;99.90
10722;DHT22;5412;59.450;18.124;2023-07-31T10:00:32;18.90;99.90
10722;DHT22;5412;59.450;18.124;2023-07-31T10:03:05;19.00;99.90
10722;DHT22;5412;59.450;18.124;2023-07-31T10:05:38;19.10;99.90
10722;DHT22;5412;59.450;18.124;2023-07-31T10:08:06;19.20;99.90
10722;DHT22;5412;59.450;18.124;2023-07-31T10:10:33;19.20;99.90
10722;DHT22;5412;59.450;18.124;2023-07-31T10:13:01;19.20;99.90
10722;DHT22;5412;59.450;18.124;2023-07-31T10:15:27;19.40;99.90
10722;DHT22;5412;59.450;18.124;2023-07-31T10:17:54;19.30;99.90
10722;DHT22;5412;59.450;18.124;2023-07-31T10:20:21;19.30;99.90
10722;DHT22;5412;59.450;18.124;2023-07-31T10:22:48;19.50;99.90
10722;DHT22;5412;59.450;18.124;2023-07-31T10:25:15;19.40;99.90
10722;DHT22;5412;59.450;18.124;2023-07-31T10:27:42;19.60;99.90
10722;DHT22;5412;59.450;18.124;2023-07-31T10:30:11;19.70;99.90
10722;DHT22;5412;59.450;18.124;2023-07-31T10:32:39;19.80;99.90
10722;DHT22;5412;59.450;18.124;2023-07-31T10:35:06;19.90;99.90
10722;DHT22;5412;59.450;18.124;2023-07-31T10:37:42;19.90;99.90
10722;DHT22;5412;59.450;18.124;2023-07-31T10:40:26;19.70;99.90
10722;DHT22;5412;59.450;18.124;2023-07-31T10:42:53;19.80;99.90
10722;DHT22;5412;59.450;18.124;2023-07-31T10:48:04;19.90;99.90
10722;DHT22;5412;59.450;18.124;2023-07-31T10:50:32;20.00;99.90
10722;DHT22;5412;59.450;18.124;2023-07-31T10:52:58;19.90;99.90
10722;DHT22;5412;59.450;18.124;2023-07-31T10:55:42;19.80;99.90
10722;DHT22;5412;59.450;18.124;2023-07-31T10:58:12;19.80;99.90
10722;DHT22;5412;59.450;18.124;2023-07-31T11:00:43;19.80;99.90
10722;DHT22;5412;59.450;18.124;2023-07-31T11:03:16;19.80;99.90
10722;DHT22;5412;59.450;18.124;2023-07-31T11:08:27;19.70;99.90
10722;DHT22;5412;59.450;18.124;2023-07-31T11:15:53;19.60;99.90
10722;DHT22;5412;59.450;18.124;2023-07-31T11:18:19;19.60;99.90
10722;DHT22;5412;59.450;18.124;2023-07-31T11:20:45;19.50;99.90
10722;DHT22;5412;59.450;18.124;2023-07-31T11:23:11;19.50;99.90
10722;DHT22;5412;59.450;18.124;2023-07-31T11:25:39;19.50;99.90
10722;DHT22;5412;59.450;18.124;2023-07-31T11:28:13;19.60;99.90
10722;DHT22;5412;59.450;18.124;2023-07-31T11:30:41;19.50;99.90
10722;DHT22;5412;59.450;18.124;2023-07-31T11:33:08;19.50;99.90
10722;DHT22;5412;59.450;18.124;2023-07-31T11:35:54;19.50;99.90
10722;DHT22;5412;59.450;18.124;2023-07-31T11:38:31;19.50;99.90
10722;DHT22;5412;59.450;18.124;2023-07-31T11:40:59;19.50;99.90
10722;DHT22;5412;59.450;18.124;2023-07-31T11:43:25;19.40;99.90
10722;DHT22;5412;59.450;18.124;2023-07-31T11:45:58;19.30;99.90
10722;DHT22;5412;59.450;18.124;2023-07-31T11:48:32;19.30;99.90
10722;DHT22;5412;59.450;18.124;2023-07-31T11:51:05;19.20;99.90
10722;DHT22;5412;59.450;18.124;2023-07-31T11:53:52;19.30;99.90
10722;DHT22;5412;59.450;18.124;2023-07-31T11:56:20;19.20;99.90
10722;DHT22;5412;59.450;18.124;2023-07-31T11:58:58;19.30;99.90
10722;DHT22;5412;59.450;18.124;2023-07-31T12:01:25;19.20;99.90
10722;DHT22;5412;59.450;18.124;2023-07-31T12:03:53;19.20;99.90
10722;DHT22;5412;59.450;18.124;2023-07-31T12:06:19;19.20;99.90
10722;DHT22;5412;59.450;18.124;2023-07-31T12:08:46;19.20;99.90
10722;DHT22;5412;59.450;18.124;2023-07-31T12:11:12;19.10;99.90
10722;DHT22;5412;59.450;18.124;2023-07-31T12:13:43;19.10;99.90
10722;DHT22;5412;59.450;18.124;2023-07-31T12:16:09;19.00;99.90
10722;DHT22;5412;59.450;18.124;2023-07-31T12:18:36;19.00;99.90
10722;DHT22;5412;59.450;18.124;2023-07-31T12:21:05;19.00;99.90
10722;DHT22;5412;59.450;18.124;2023-07-31T12:23:32;19.00;99.90
10722;DHT22;5412;59.450;18.124;2023-07-31T12:26:04;18.90;99.90
10722;DHT22;5412;59.450;18.124;2023-07-31T12:28:34;19.00;99.90
10722;DHT22;5412;59.450;18.124;2023-07-31T12:31:00;19.00;99.90
10722;DHT22;5412;59.450;18.124;2023-07-31T12:33:34;19.00;99.90
10722;DHT22;5412;59.450;18.124;2023-07-31T12:36:02;19.00;99.90
10722;DHT22;5412;59.450;18.124;2023-07-31T12:38:28;18.90;99.90
10722;DHT22;5412;59.450;18.124;2023-07-31T12:40:54;18.90;99.90
10722;DHT22;5412;59.450;18.124;2023-07-31T12:43:20;18.90;99.90
10722;DHT22;5412;59.450;18.124;2023-07-31T12:45:45;18.80;99.90
10722;DHT22;5412;59.450;18.124;2023-07-31T12:48:13;18.70;99.90
10722;DHT22;5412;59.450;18.124;2023-07-31T12:50:38;18.50;99.90
10722;DHT22;5412;59.450;18.124;2023-07-31T12:53:05;18.40;99.90
10722;DHT22;5412;59.450;18.124;2023-07-31T12:55:31;18.20;99.90
10722;DHT22;5412;59.450;18.124;2023-07-31T12:57:57;18.20;99.90
10722;DHT22;5412;59.450;18.124;2023-07-31T13:00:22;18.10;99.90
10722;DHT22;5412;59.450;18.124;2023-07-31T13:02:48;18.00;99.90
10722;DHT22;5412;59.450;18.124;2023-07-31T13:05:14;18.10;99.90
10722;DHT22;5412;59.450;18.124;2023-07-31T13:07:40;18.10;99.90
10722;DHT22;5412;59.450;18.124;2023-07-31T13:10:07;18.10;99.90
10722;DHT22;5412;59.450;18.124;2023-07-31T13:12:33;18.00;99.90
10722;DHT22;5412;59.450;18.124;2023-07-31T13:14:59;17.90;99.90
10722;DHT22;5412;59.450;18.124;2023-07-31T13:17:25;18.00;99.90
10722;DHT22;5412;59.450;18.124;2023-07-31T13:19:52;17.90;99.90
10722;DHT22;5412;59.450;18.124;2023-07-31T13:22:18;18.00;99.90
10722;DHT22;5412;59.450;18.124;2023-07-31T13:24:43;18.10;99.90
10722;DHT22;5412;59.450;18.124;2023-07-31T13:27:09;18.10;99.90
10722;DHT22;5412;59.450;18.124;2023-07-31T13:29:35;18.20;99.90
10722;DHT22;5412;59.450;18.124;2023-07-31T13:32:00;18.40;99.90
10722;DHT22;5412;59.450;18.124;2023-07-31T13:34:26;18.40;99.90
10722;DHT22;5412;59.450;18.124;2023-07-31T13:36:54;18.40;99.90
10722;DHT22;5412;59.450;18.124;2023-07-31T13:39:20;18.20;99.90
10722;DHT22;5412;59.450;18.124;2023-07-31T13:41:46;18.20;99.90
10722;DHT22;5412;59.450;18.124;2023-07-31T13:44:12;18.10;99.90
10722;DHT22;5412;59.450;18.124;2023-07-31T13:46:37;18.00;99.90
10722;DHT22;5412;59.450;18.124;2023-07-31T13:49:03;18.10;99.90
10722;DHT22;5412;59.450;18.124;2023-07-31T13:51:29;18.10;99.90
10722;DHT22;5412;59.450;18.124;2023-07-31T13:53:54;18.10;99.90
10722;DHT22;5412;59.450;18.124;2023-07-31T13:56:20;18.20;99.90
10722;DHT22;5412;59.450;18.124;2023-07-31T13:58:46;18.30;99.90
10722;DHT22;5412;59.450;18.124;2023-07-31T14:01:12;18.40;99.90
10722;DHT22;5412;59.450;18.124;2023-07-31T14:03:37;18.30;99.90
10722;DHT22;5412;59.450;18.124;2023-07-31T14:06:03;18.30;99.90
10722;DHT22;5412;59.450;18.124;2023-07-31T14:08:29;18.40;99.90
10722;DHT22;5412;59.450;18.124;2023-07-31T14:10:55;18.40;99.90
10722;DHT22;5412;59.450;18.124;2023-07-31T14:13:21;18.30;99.90
10722;DHT22;5412;59.450;18.124;2023-07-31T14:15:47;18.40;99.90
10722;DHT22;5412;59.450;18.124;2023-07-31T14:18:13;18.30;99.90
10722;DHT22;5412;59.450;18.124;2023-07-31T14:20:39;18.20;99.90
10722;DHT22;5412;59.450;18.124;2023-07-31T14:23:05;18.30;99.90
10722;DHT22;5412;59.450;18.124;2023-07-31T14:25:51;18.20;99.90
10722;DHT22;5412;59.450;18.124;2023-07-31T14:28:16;18.10;99.90
10722;DHT22;5412;59.450;18.124;2023-07-31T14:30:42;18.10;99.90
10722;DHT22;5412;59.450;18.124;2023-07-31T14:33:08;18.20;99.90
10722;DHT22;5412;59.450;18.124;2023-07-31T14:35:34;18.10;99.90
10722;DHT22;5412;59.450;18.124;2023-07-31T14:38:00;18.20;99.90
10722;DHT22;5412;59.450;18.124;2023-07-31T14:40:26;18.10;99.90
10722;DHT22;5412;59.450;18.124;2023-07-31T14:42:52;18.00;99.90
10722;DHT22;5412;59.450;18.124;2023-07-31T14:45:17;18.10;99.90
10722;DHT22;5412;59.450;18.124;2023-07-31T14:47:43;18.10;99.90
10722;DHT22;5412;59.450;18.124;2023-07-31T14:50:09;18.10;99.90
10722;DHT22;5412;59.450;18.124;2023-07-31T14:52:35;18.10;99.90
10722;DHT22;5412;59.450;18.124;2023-07-31T14:55:01;18.10;99.90
10722;DHT22;5412;59.450;18.124;2023-07-31T14:57:26;18.00;99.90
10722;DHT22;5412;59.450;18.124;2023-07-31T14:59:52;18.00;99.90
10722;DHT22;5412;59.450;18.124;2023-07-31T15:02:18;18.00;99.90
10722;DHT22;5412;59.450;18.124;2023-07-31T15:04:43;18.00;99.90
10722;DHT22;5412;59.450;18.124;2023-07-31T15:07:09;17.90;99.90
10722;DHT22;5412;59.450;18.124;2023-07-31T15:09:35;17.90;99.90
10722;DHT22;5412;59.450;18.124;2023-07-31T15:12:01;17.70;99.90
10722;DHT22;5412;59.450;18.124;2023-07-31T15:14:27;17.80;99.90
10722;DHT22;5412;59.450;18.124;2023-07-31T15:16:53;17.80;99.90
10722;DHT22;5412;59.450;18.124;2023-07-31T15:19:19;17.80;99.90
10722;DHT22;5412;59.450;18.124;2023-07-31T15:21:45;17.80;99.90
10722;DHT22;5412;59.450;18.124;2023-07-31T15:24:11;17.90;99.90
10722;DHT22;5412;59.450;18.124;2023-07-31T15:26:37;17.90;99.90
10722;DHT22;5412;59.450;18.124;2023-07-31T15:29:05;17.90;99.90
10722;DHT22;5412;59.450;18.124;2023-07-31T15:31:35;18.00;99.90
10722;DHT22;5412;59.450;18.124;2023-07-31T15:34:00;18.00;99.90
10722;DHT22;5412;59.450;18.124;2023-07-31T15:36:26;17.90;99.90
10722;DHT22;5412;59.450;18.124;2023-07-31T15:38:52;17.90;99.90
10722;DHT22;5412;59.450;18.124;2023-07-31T15:41:18;18.00;99.90
10722;DHT22;5412;59.450;18.124;2023-07-31T15:43:44;18.00;99.90